sensor_id;sensor_type;location;lat;lon;timestamp;P1;durP1;ratioP1;P2;durP2;ratioP2
74941;SDS011;63506;49.346;8.798;2023-07-13T00:01:01;1.60;;;1.35;;
74941;SDS011;63506;49.346;8.798;2023-07-13T00:03:29;2.20;;;1.48;;
74941;SDS011;63506;49.346;8.798;2023-07-13T00:06:06;1.17;;;1.08;;
74941;SDS011;63506;49.346;8.798;2023-07-13T00:08:36;6.10;;;1.90;;
74941;SDS011;63506;49.346;8.798;2023-07-13T00:11:06;1.13;;;0.80;;
74941;SDS011;63506;49.346;8.798;2023-07-13T00:13:36;4.63;;;1.20;;
74941;SDS011;63506;49.346;8.798;2023-07-13T00:16:06;1.55;;;1.30;;
74941;SDS011;63506;49.346;8.798;2023-07-13T00:18:34;3.22;;;1.60;;
74941;SDS011;63506;49.346;8.798;2023-07-13T00:21:04;6.75;;;1.60;;
74941;SDS011;63506;49.346;8.798;2023-07-13T00:23:37;2.90;;;1.08;;
74941;SDS011;63506;49.346;8.798;2023-07-13T00:26:07;1.60;;;1.30;;
74941;SDS011;63506;49.346;8.798;2023-07-13T00:28:36;3.83;;;2.08;;
74941;SDS011;63506;49.346;8.798;2023-07-13T00:31:03;2.55;;;1.55;;
74941;SDS011;63506;49.346;8.798;2023-07-13T00:33:31;2.33;;;1.45;;
74941;SDS011;63506;49.346;8.798;2023-07-13T00:35:59;4.25;;;1.48;;
74941;SDS011;63506;49.346;8.798;2023-07-13T00:38:31;2.60;;;1.52;;
74941;SDS011;63506;49.346;8.798;2023-07-13T00:40:58;2.17;;;1.58;;
74941;SDS011;63506;49.346;8.798;2023-07-13T00:46:10;2.42;;;1.40;;
74941;SDS011;63506;49.346;8.798;2023-07-13T00:48:43;3.08;;;1.90;;
74941;SDS011;63506;49.346;8.798;2023-07-13T00:51:19;4.00;;;1.58;;
74941;SDS011;63506;49.346;8.798;2023-07-13T00:53:52;2.25;;;1.40;;
74941;SDS011;63506;49.346;8.798;2023-07-13T00:56:24;2.60;;;1.35;;
74941;SDS011;63506;49.346;8.798;2023-07-13T00:58:52;2.55;;;1.35;;
74941;SDS011;63506;49.346;8.798;2023-07-13T01:01:20;2.35;;;1.67;;
74941;SDS011;63506;49.346;8.798;2023-07-13T01:03:48;2.10;;;1.55;;
74941;SDS011;63506;49.346;8.798;2023-07-13T01:06:16;2.10;;;1.10;;
74941;SDS011;63506;49.346;8.798;2023-07-13T01:08:44;3.97;;;1.27;;
74941;SDS011;63506;49.346;8.798;2023-07-13T01:11:13;2.40;;;1.20;;
74941;SDS011;63506;49.346;8.798;2023-07-13T01:13:45;3.55;;;2.17;;
74941;SDS011;63506;49.346;8.798;2023-07-13T01:16:23;3.80;;;1.70;;
74941;SDS011;63506;49.346;8.798;2023-07-13T01:18:52;4.50;;;1.30;;
74941;SDS011;63506;49.346;8.798;2023-07-13T01:21:21;3.30;;;1.73;;
74941;SDS011;63506;49.346;8.798;2023-07-13T01:23:51;2.80;;;1.58;;
74941;SDS011;63506;49.346;8.798;2023-07-13T01:26:21;7.35;;;1.98;;
74941;SDS011;63506;49.346;8.798;2023-07-13T01:28:48;3.85;;;1.83;;
74941;SDS011;63506;49.346;8.798;2023-07-13T01:31:18;2.13;;;1.65;;
74941;SDS011;63506;49.346;8.798;2023-07-13T01:33:46;4.07;;;1.60;;
74941;SDS011;63506;49.346;8.798;2023-07-13T01:36:13;3.40;;;1.73;;
74941;SDS011;63506;49.346;8.798;2023-07-13T01:38:44;1.88;;;1.40;;
74941;SDS011;63506;49.346;8.798;2023-07-13T01:41:14;2.88;;;2.08;;
74941;SDS011;63506;49.346;8.798;2023-07-13T01:43:46;2.58;;;1.90;;
74941;SDS011;63506;49.346;8.798;2023-07-13T01:46:13;2.80;;;2.30;;
74941;SDS011;63506;49.346;8.798;2023-07-13T01:48:40;4.68;;;1.92;;
74941;SDS011;63506;49.346;8.798;2023-07-13T01:51:11;2.78;;;1.75;;
74941;SDS011;63506;49.346;8.798;2023-07-13T01:53:46;3.72;;;2.33;;
74941;SDS011;63506;49.346;8.798;2023-07-13T01:56:13;3.65;;;2.88;;
74941;SDS011;63506;49.346;8.798;2023-07-13T01:58:41;2.58;;;2.00;;
74941;SDS011;63506;49.346;8.798;2023-07-13T02:01:08;2.95;;;1.95;;
74941;SDS011;63506;49.346;8.798;2023-07-13T02:03:35;2.53;;;1.77;;
74941;SDS011;63506;49.346;8.798;2023-07-13T02:06:03;4.70;;;3.13;;
74941;SDS011;63506;49.346;8.798;2023-07-13T02:08:33;4.60;;;3.00;;
74941;SDS011;63506;49.346;8.798;2023-07-13T02:11:02;4.55;;;3.08;;
74941;SDS011;63506;49.346;8.798;2023-07-13T02:13:29;6.07;;;2.45;;
74941;SDS011;63506;49.346;8.798;2023-07-13T02:15:57;2.50;;;2.10;;
74941;SDS011;63506;49.346;8.798;2023-07-13T02:18:24;4.85;;;2.40;;
74941;SDS011;63506;49.346;8.798;2023-07-13T02:20:52;2.08;;;1.88;;
74941;SDS011;63506;49.346;8.798;2023-07-13T02:23:22;2.65;;;1.83;;
74941;SDS011;63506;49.346;8.798;2023-07-13T02:25:54;2.97;;;2.22;;
74941;SDS011;63506;49.346;8.798;2023-07-13T02:28:23;3.53;;;2.60;;
74941;SDS011;63506;49.346;8.798;2023-07-13T02:30:54;2.58;;;2.28;;
74941;SDS011;63506;49.346;8.798;2023-07-13T02:33:30;3.50;;;2.13;;
74941;SDS011;63506;49.346;8.798;2023-07-13T02:35:58;2.55;;;1.70;;
74941;SDS011;63506;49.346;8.798;2023-07-13T02:38:28;3.25;;;1.67;;
74941;SDS011;63506;49.346;8.798;2023-07-13T02:40:56;2.15;;;1.95;;
74941;SDS011;63506;49.346;8.798;2023-07-13T02:43:27;3.00;;;2.15;;
74941;SDS011;63506;49.346;8.798;2023-07-13T02:45:55;2.78;;;2.33;;
74941;SDS011;63506;49.346;8.798;2023-07-13T02:48:28;5.05;;;3.05;;
74941;SDS011;63506;49.346;8.798;2023-07-13T02:50:58;5.47;;;2.15;;
74941;SDS011;63506;49.346;8.798;2023-07-13T02:53:26;2.30;;;1.80;;
74941;SDS011;63506;49.346;8.798;2023-07-13T02:55:56;4.47;;;2.28;;
74941;SDS011;63506;49.346;8.798;2023-07-13T02:58:27;2.85;;;2.25;;
74941;SDS011;63506;49.346;8.798;2023-07-13T03:00:55;3.65;;;1.77;;
74941;SDS011;63506;49.346;8.798;2023-07-13T03:03:23;4.07;;;2.25;;
74941;SDS011;63506;49.346;8.798;2023-07-13T03:05:57;2.72;;;1.95;;
74941;SDS011;63506;49.346;8.798;2023-07-13T03:08:30;2.70;;;1.92;;
74941;SDS011;63506;49.346;8.798;2023-07-13T03:10:58;4.40;;;1.90;;
74941;SDS011;63506;49.346;8.798;2023-07-13T03:13:29;3.17;;;2.28;;
74941;SDS011;63506;49.346;8.798;2023-07-13T03:15:57;2.10;;;1.88;;
74941;SDS011;63506;49.346;8.798;2023-07-13T03:18:25;3.58;;;2.10;;
74941;SDS011;63506;49.346;8.798;2023-07-13T03:20:53;4.32;;;2.10;;
74941;SDS011;63506;49.346;8.798;2023-07-13T03:23:25;2.22;;;1.75;;
74941;SDS011;63506;49.346;8.798;2023-07-13T03:26:00;2.80;;;1.70;;
74941;SDS011;63506;49.346;8.798;2023-07-13T03:28:30;4.38;;;2.20;;
74941;SDS011;63506;49.346;8.798;2023-07-13T03:31:02;5.07;;;2.00;;
74941;SDS011;63506;49.346;8.798;2023-07-13T03:33:33;3.10;;;2.15;;
74941;SDS011;63506;49.346;8.798;2023-07-13T03:36:02;2.30;;;2.10;;
74941;SDS011;63506;49.346;8.798;2023-07-13T03:38:30;3.35;;;2.00;;
74941;SDS011;63506;49.346;8.798;2023-07-13T03:41:03;3.22;;;2.13;;
74941;SDS011;63506;49.346;8.798;2023-07-13T03:43:35;2.63;;;2.42;;
74941;SDS011;63506;49.346;8.798;2023-07-13T03:46:04;4.72;;;2.00;;
74941;SDS011;63506;49.346;8.798;2023-07-13T03:48:31;2.45;;;2.05;;
74941;SDS011;63506;49.346;8.798;2023-07-13T03:51:02;3.50;;;2.35;;
74941;SDS011;63506;49.346;8.798;2023-07-13T03:53:30;2.50;;;2.05;;
74941;SDS011;63506;49.346;8.798;2023-07-13T03:55:58;4.95;;;2.78;;
74941;SDS011;63506;49.346;8.798;2023-07-13T03:58:27;3.15;;;1.80;;
74941;SDS011;63506;49.346;8.798;2023-07-13T04:01:03;2.97;;;2.10;;
74941;SDS011;63506;49.346;8.798;2023-07-13T04:03:32;4.05;;;2.35;;
74941;SDS011;63506;49.346;8.798;2023-07-13T04:06:00;7.18;;;2.80;;
74941;SDS011;63506;49.346;8.798;2023-07-13T04:08:28;5.78;;;2.35;;
74941;SDS011;63506;49.346;8.798;2023-07-13T04:10:58;2.67;;;1.90;;
74941;SDS011;63506;49.346;8.798;2023-07-13T04:13:31;2.00;;;1.77;;
74941;SDS011;63506;49.346;8.798;2023-07-13T04:16:05;2.38;;;2.17;;
74941;SDS011;63506;49.346;8.798;2023-07-13T04:18:35;2.63;;;2.17;;
74941;SDS011;63506;49.346;8.798;2023-07-13T04:21:03;5.60;;;2.35;;
74941;SDS011;63506;49.346;8.798;2023-07-13T04:23:30;2.80;;;2.28;;
74941;SDS011;63506;49.346;8.798;2023-07-13T04:26:00;3.47;;;2.75;;
74941;SDS011;63506;49.346;8.798;2023-07-13T04:28:27;4.60;;;2.15;;
74941;SDS011;63506;49.346;8.798;2023-07-13T04:30:55;7.15;;;2.33;;
74941;SDS011;63506;49.346;8.798;2023-07-13T04:33:23;2.92;;;1.63;;
74941;SDS011;63506;49.346;8.798;2023-07-13T04:35:51;3.22;;;2.40;;
74941;SDS011;63506;49.346;8.798;2023-07-13T04:38:47;2.90;;;2.13;;
74941;SDS011;63506;49.346;8.798;2023-07-13T04:41:15;2.42;;;2.10;;
74941;SDS011;63506;49.346;8.798;2023-07-13T04:43:45;6.40;;;2.15;;
74941;SDS011;63506;49.346;8.798;2023-07-13T04:46:17;2.60;;;1.92;;
74941;SDS011;63506;49.346;8.798;2023-07-13T04:48:46;4.05;;;2.22;;
74941;SDS011;63506;49.346;8.798;2023-07-13T04:51:13;3.15;;;2.25;;
74941;SDS011;63506;49.346;8.798;2023-07-13T04:53:43;4.22;;;2.13;;
74941;SDS011;63506;49.346;8.798;2023-07-13T04:56:13;3.35;;;1.92;;
74941;SDS011;63506;49.346;8.798;2023-07-13T04:58:42;3.30;;;2.35;;
74941;SDS011;63506;49.346;8.798;2023-07-13T05:01:12;2.88;;;2.13;;
74941;SDS011;63506;49.346;8.798;2023-07-13T05:03:40;4.05;;;2.20;;
74941;SDS011;63506;49.346;8.798;2023-07-13T05:06:08;2.28;;;1.73;;
74941;SDS011;63506;49.346;8.798;2023-07-13T05:08:36;3.90;;;2.05;;
74941;SDS011;63506;49.346;8.798;2023-07-13T05:11:04;13.15;;;2.83;;
74941;SDS011;63506;49.346;8.798;2023-07-13T05:13:32;3.10;;;2.00;;
74941;SDS011;63506;49.346;8.798;2023-07-13T05:16:03;2.38;;;1.98;;
74941;SDS011;63506;49.346;8.798;2023-07-13T05:18:31;3.17;;;2.25;;
74941;SDS011;63506;49.346;8.798;2023-07-13T05:21:00;2.30;;;2.08;;
74941;SDS011;63506;49.346;8.798;2023-07-13T05:23:29;4.35;;;2.40;;
74941;SDS011;63506;49.346;8.798;2023-07-13T05:25:57;3.03;;;2.25;;
74941;SDS011;63506;49.346;8.798;2023-07-13T05:28:28;6.45;;;1.90;;
74941;SDS011;63506;49.346;8.798;2023-07-13T05:30:57;2.30;;;2.10;;
74941;SDS011;63506;49.346;8.798;2023-07-13T05:33:24;4.22;;;1.75;;
74941;SDS011;63506;49.346;8.798;2023-07-13T05:35:52;2.25;;;1.70;;
74941;SDS011;63506;49.346;8.798;2023-07-13T05:38:19;2.80;;;1.52;;
74941;SDS011;63506;49.346;8.798;2023-07-13T05:40:50;4.13;;;2.88;;
74941;SDS011;63506;49.346;8.798;2023-07-13T05:43:18;2.15;;;1.40;;
74941;SDS011;63506;49.346;8.798;2023-07-13T05:45:45;3.95;;;1.92;;
74941;SDS011;63506;49.346;8.798;2023-07-13T05:48:15;2.28;;;1.55;;
74941;SDS011;63506;49.346;8.798;2023-07-13T05:50:42;6.60;;;2.00;;
74941;SDS011;63506;49.346;8.798;2023-07-13T05:53:12;4.38;;;1.90;;
74941;SDS011;63506;49.346;8.798;2023-07-13T05:55:40;3.00;;;1.65;;
74941;SDS011;63506;49.346;8.798;2023-07-13T05:58:11;3.72;;;2.45;;
74941;SDS011;63506;49.346;8.798;2023-07-13T06:00:38;3.60;;;1.85;;
74941;SDS011;63506;49.346;8.798;2023-07-13T06:03:06;5.85;;;2.67;;
74941;SDS011;63506;49.346;8.798;2023-07-13T06:05:34;2.83;;;1.80;;
74941;SDS011;63506;49.346;8.798;2023-07-13T06:08:02;2.47;;;1.35;;
74941;SDS011;63506;49.346;8.798;2023-07-13T06:10:31;4.80;;;2.03;;
74941;SDS011;63506;49.346;8.798;2023-07-13T06:12:59;8.07;;;1.70;;
74941;SDS011;63506;49.346;8.798;2023-07-13T06:15:30;2.33;;;1.55;;
74941;SDS011;63506;49.346;8.798;2023-07-13T06:18:00;2.17;;;1.35;;
74941;SDS011;63506;49.346;8.798;2023-07-13T06:20:33;2.80;;;1.50;;
74941;SDS011;63506;49.346;8.798;2023-07-13T06:23:05;3.58;;;1.70;;
74941;SDS011;63506;49.346;8.798;2023-07-13T06:25:35;2.83;;;1.20;;
74941;SDS011;63506;49.346;8.798;2023-07-13T06:28:05;2.45;;;1.67;;
74941;SDS011;63506;49.346;8.798;2023-07-13T06:30:34;4.43;;;1.85;;
74941;SDS011;63506;49.346;8.798;2023-07-13T06:33:01;2.00;;;1.23;;
74941;SDS011;63506;49.346;8.798;2023-07-13T06:35:29;3.67;;;1.50;;
74941;SDS011;63506;49.346;8.798;2023-07-13T06:38:01;2.63;;;1.67;;
74941;SDS011;63506;49.346;8.798;2023-07-13T06:40:28;3.80;;;1.40;;
74941;SDS011;63506;49.346;8.798;2023-07-13T06:43:02;3.40;;;1.55;;
74941;SDS011;63506;49.346;8.798;2023-07-13T06:45:30;2.45;;;1.23;;
74941;SDS011;63506;49.346;8.798;2023-07-13T06:48:03;2.08;;;1.30;;
74941;SDS011;63506;49.346;8.798;2023-07-13T06:50:30;2.45;;;1.17;;
74941;SDS011;63506;49.346;8.798;2023-07-13T06:52:58;1.65;;;1.33;;
74941;SDS011;63506;49.346;8.798;2023-07-13T06:55:27;1.88;;;1.70;;
74941;SDS011;63506;49.346;8.798;2023-07-13T06:58:00;2.35;;;1.30;;
74941;SDS011;63506;49.346;8.798;2023-07-13T07:00:30;2.33;;;1.20;;
74941;SDS011;63506;49.346;8.798;2023-07-13T07:03:01;3.17;;;1.52;;
74941;SDS011;63506;49.346;8.798;2023-07-13T07:05:31;1.60;;;1.33;;
74941;SDS011;63506;49.346;8.798;2023-07-13T07:07:58;3.67;;;1.48;;
74941;SDS011;63506;49.346;8.798;2023-07-13T07:10:28;4.60;;;1.30;;
74941;SDS011;63506;49.346;8.798;2023-07-13T07:12:56;2.95;;;1.45;;
74941;SDS011;63506;49.346;8.798;2023-07-13T07:15:27;3.90;;;1.60;;
74941;SDS011;63506;49.346;8.798;2023-07-13T07:17:58;2.88;;;1.70;;
74941;SDS011;63506;49.346;8.798;2023-07-13T07:20:26;2.05;;;1.52;;
74941;SDS011;63506;49.346;8.798;2023-07-13T07:22:54;2.33;;;1.67;;
74941;SDS011;63506;49.346;8.798;2023-07-13T07:25:23;4.05;;;1.55;;
74941;SDS011;63506;49.346;8.798;2023-07-13T07:27:51;2.08;;;1.85;;
74941;SDS011;63506;49.346;8.798;2023-07-13T07:30:21;4.25;;;1.75;;
74941;SDS011;63506;49.346;8.798;2023-07-13T07:32:51;2.80;;;1.50;;
74941;SDS011;63506;49.346;8.798;2023-07-13T07:35:21;3.00;;;1.48;;
74941;SDS011;63506;49.346;8.798;2023-07-13T07:37:52;4.63;;;1.63;;
74941;SDS011;63506;49.346;8.798;2023-07-13T07:40:22;2.40;;;1.27;;
74941;SDS011;63506;49.346;8.798;2023-07-13T07:42:55;5.35;;;1.80;;
74941;SDS011;63506;49.346;8.798;2023-07-13T07:45:29;4.28;;;1.77;;
74941;SDS011;63506;49.346;8.798;2023-07-13T07:47:57;1.10;;;0.88;;
74941;SDS011;63506;49.346;8.798;2023-07-13T07:50:31;3.45;;;1.13;;
74941;SDS011;63506;49.346;8.798;2023-07-13T07:53:00;2.13;;;1.25;;
74941;SDS011;63506;49.346;8.798;2023-07-13T07:55:33;3.40;;;1.88;;
74941;SDS011;63506;49.346;8.798;2023-07-13T07:58:06;2.35;;;1.05;;
74941;SDS011;63506;49.346;8.798;2023-07-13T08:00:34;4.00;;;1.25;;
74941;SDS011;63506;49.346;8.798;2023-07-13T08:03:05;2.83;;;1.80;;
74941;SDS011;63506;49.346;8.798;2023-07-13T08:05:34;1.38;;;0.75;;
74941;SDS011;63506;49.346;8.798;2023-07-13T08:08:03;1.05;;;0.93;;
74941;SDS011;63506;49.346;8.798;2023-07-13T08:10:31;4.10;;;1.17;;
74941;SDS011;63506;49.346;8.798;2023-07-13T08:13:01;3.75;;;1.65;;
74941;SDS011;63506;49.346;8.798;2023-07-13T08:15:32;2.67;;;1.30;;
74941;SDS011;63506;49.346;8.798;2023-07-13T08:18:02;2.38;;;1.00;;
74941;SDS011;63506;49.346;8.798;2023-07-13T08:20:30;2.15;;;1.00;;
74941;SDS011;63506;49.346;8.798;2023-07-13T08:23:13;2.90;;;1.38;;
74941;SDS011;63506;49.346;8.798;2023-07-13T08:25:50;1.25;;;0.90;;
74941;SDS011;63506;49.346;8.798;2023-07-13T08:28:23;2.72;;;1.15;;
74941;SDS011;63506;49.346;8.798;2023-07-13T08:33:26;2.42;;;1.38;;
74941;SDS011;63506;49.346;8.798;2023-07-13T08:39:23;2.15;;;1.00;;
74941;SDS011;63506;49.346;8.798;2023-07-13T08:41:58;1.73;;;1.52;;
74941;SDS011;63506;49.346;8.798;2023-07-13T08:44:35;3.80;;;1.17;;
74941;SDS011;63506;49.346;8.798;2023-07-13T08:47:11;2.83;;;1.60;;
74941;SDS011;63506;49.346;8.798;2023-07-13T08:49:43;4.55;;;2.15;;
74941;SDS011;63506;49.346;8.798;2023-07-13T08:52:16;1.70;;;1.23;;
74941;SDS011;63506;49.346;8.798;2023-07-13T08:54:48;3.25;;;2.20;;
74941;SDS011;63506;49.346;8.798;2023-07-13T08:57:27;3.03;;;1.70;;
74941;SDS011;63506;49.346;8.798;2023-07-13T08:59:59;2.80;;;1.38;;
74941;SDS011;63506;49.346;8.798;2023-07-13T09:02:26;3.25;;;1.30;;
74941;SDS011;63506;49.346;8.798;2023-07-13T09:05:05;3.28;;;1.58;;
74941;SDS011;63506;49.346;8.798;2023-07-13T09:07:41;2.33;;;1.38;;
74941;SDS011;63506;49.346;8.798;2023-07-13T09:10:19;1.52;;;1.40;;
74941;SDS011;63506;49.346;8.798;2023-07-13T09:12:56;4.30;;;1.40;;
74941;SDS011;63506;49.346;8.798;2023-07-13T09:15:35;10.43;;;1.77;;
74941;SDS011;63506;49.346;8.798;2023-07-13T09:18:06;5.10;;;1.98;;
74941;SDS011;63506;49.346;8.798;2023-07-13T09:20:39;3.28;;;1.65;;
74941;SDS011;63506;49.346;8.798;2023-07-13T09:23:13;3.53;;;1.10;;
74941;SDS011;63506;49.346;8.798;2023-07-13T09:25:48;2.90;;;1.38;;
74941;SDS011;63506;49.346;8.798;2023-07-13T09:28:25;4.07;;;1.55;;
74941;SDS011;63506;49.346;8.798;2023-07-13T09:30:56;8.07;;;1.58;;
74941;SDS011;63506;49.346;8.798;2023-07-13T09:33:30;4.88;;;1.80;;
74941;SDS011;63506;49.346;8.798;2023-07-13T09:35:58;5.88;;;1.77;;
74941;SDS011;63506;49.346;8.798;2023-07-13T09:38:29;4.70;;;1.50;;
74941;SDS011;63506;49.346;8.798;2023-07-13T09:41:04;3.78;;;1.85;;
74941;SDS011;63506;49.346;8.798;2023-07-13T09:46:37;2.55;;;1.55;;
74941;SDS011;63506;49.346;8.798;2023-07-13T09:49:09;3.00;;;1.38;;
74941;SDS011;63506;49.346;8.798;2023-07-13T09:51:39;2.78;;;1.23;;
74941;SDS011;63506;49.346;8.798;2023-07-13T09:54:17;1.20;;;1.08;;
74941;SDS011;63506;49.346;8.798;2023-07-13T09:56:56;2.10;;;1.20;;
74941;SDS011;63506;49.346;8.798;2023-07-13T09:59:26;2.53;;;1.30;;
74941;SDS011;63506;49.346;8.798;2023-07-13T10:01:56;2.05;;;1.23;;
74941;SDS011;63506;49.346;8.798;2023-07-13T10:04:27;2.47;;;1.33;;
74941;SDS011;63506;49.346;8.798;2023-07-13T10:07:04;2.03;;;1.60;;
74941;SDS011;63506;49.346;8.798;2023-07-13T10:09:41;2.08;;;1.35;;
74941;SDS011;63506;49.346;8.798;2023-07-13T10:12:15;1.63;;;1.23;;
74941;SDS011;63506;49.346;8.798;2023-07-13T10:14:43;1.00;;;0.90;;
74941;SDS011;63506;49.346;8.798;2023-07-13T10:17:12;4.38;;;1.40;;
74941;SDS011;63506;49.346;8.798;2023-07-13T10:19:45;2.80;;;1.27;;
74941;SDS011;63506;49.346;8.798;2023-07-13T10:22:20;2.63;;;1.33;;
74941;SDS011;63506;49.346;8.798;2023-07-13T10:24:53;3.95;;;1.20;;
74941;SDS011;63506;49.346;8.798;2023-07-13T10:27:28;4.47;;;2.30;;
74941;SDS011;63506;49.346;8.798;2023-07-13T10:30:01;3.58;;;1.50;;
74941;SDS011;63506;49.346;8.798;2023-07-13T10:32:33;4.15;;;1.40;;
74941;SDS011;63506;49.346;8.798;2023-07-13T10:35:09;6.22;;;1.55;;
74941;SDS011;63506;49.346;8.798;2023-07-13T10:37:45;2.20;;;1.27;;
74941;SDS011;63506;49.346;8.798;2023-07-13T10:40:27;1.57;;;1.20;;
74941;SDS011;63506;49.346;8.798;2023-07-13T10:43:01;2.00;;;1.27;;
74941;SDS011;63506;49.346;8.798;2023-07-13T10:45:34;4.97;;;1.42;;
74941;SDS011;63506;49.346;8.798;2023-07-13T10:48:05;2.95;;;1.52;;
74941;SDS011;63506;49.346;8.798;2023-07-13T10:50:40;2.08;;;1.33;;
74941;SDS011;63506;49.346;8.798;2023-07-13T10:53:17;5.35;;;1.58;;
74941;SDS011;63506;49.346;8.798;2023-07-13T10:55:56;1.65;;;1.20;;
74941;SDS011;63506;49.346;8.798;2023-07-13T10:58:31;1.67;;;1.38;;
74941;SDS011;63506;49.346;8.798;2023-07-13T11:01:06;1.73;;;1.10;;
74941;SDS011;63506;49.346;8.798;2023-07-13T11:03:47;3.92;;;1.52;;
74941;SDS011;63506;49.346;8.798;2023-07-13T11:06:29;3.28;;;1.25;;
74941;SDS011;63506;49.346;8.798;2023-07-13T11:09:07;3.08;;;1.55;;
74941;SDS011;63506;49.346;8.798;2023-07-13T11:11:46;1.77;;;1.30;;
74941;SDS011;63506;49.346;8.798;2023-07-13T11:14:29;2.25;;;1.27;;
74941;SDS011;63506;49.346;8.798;2023-07-13T11:16:58;1.35;;;1.23;;
74941;SDS011;63506;49.346;8.798;2023-07-13T11:19:40;0.98;;;0.80;;
74941;SDS011;63506;49.346;8.798;2023-07-13T11:22:25;4.03;;;1.55;;
74941;SDS011;63506;49.346;8.798;2023-07-13T11:28:06;3.42;;;1.05;;
74941;SDS011;63506;49.346;8.798;2023-07-13T11:30:46;1.23;;;1.13;;
74941;SDS011;63506;49.346;8.798;2023-07-13T11:33:15;7.95;;;1.13;;
74941;SDS011;63506;49.346;8.798;2023-07-13T11:35:45;2.17;;;1.08;;
74941;SDS011;63506;49.346;8.798;2023-07-13T11:38:20;5.00;;;1.20;;
74941;SDS011;63506;49.346;8.798;2023-07-13T11:40:51;1.63;;;1.25;;
74941;SDS011;63506;49.346;8.798;2023-07-13T11:43:21;3.55;;;1.23;;
74941;SDS011;63506;49.346;8.798;2023-07-13T11:45:51;4.53;;;1.13;;
74941;SDS011;63506;49.346;8.798;2023-07-13T11:48:23;3.50;;;1.75;;
74941;SDS011;63506;49.346;8.798;2023-07-13T11:50:56;2.45;;;1.77;;
74941;SDS011;63506;49.346;8.798;2023-07-13T11:53:26;1.90;;;1.15;;
74941;SDS011;63506;49.346;8.798;2023-07-13T11:55:54;2.80;;;1.35;;
74941;SDS011;63506;49.346;8.798;2023-07-13T11:58:23;2.92;;;1.10;;
74941;SDS011;63506;49.346;8.798;2023-07-13T12:00:52;2.10;;;1.05;;
74941;SDS011;63506;49.346;8.798;2023-07-13T12:03:21;6.93;;;2.33;;
74941;SDS011;63506;49.346;8.798;2023-07-13T12:05:57;3.30;;;1.40;;
74941;SDS011;63506;49.346;8.798;2023-07-13T12:08:28;1.25;;;0.80;;
74941;SDS011;63506;49.346;8.798;2023-07-13T12:10:57;4.22;;;1.15;;
74941;SDS011;63506;49.346;8.798;2023-07-13T12:13:26;1.92;;;1.58;;
74941;SDS011;63506;49.346;8.798;2023-07-13T12:15:56;2.38;;;1.10;;
74941;SDS011;63506;49.346;8.798;2023-07-13T12:18:28;4.47;;;1.02;;
74941;SDS011;63506;49.346;8.798;2023-07-13T12:21:00;3.20;;;0.95;;
74941;SDS011;63506;49.346;8.798;2023-07-13T12:23:30;2.13;;;1.25;;
74941;SDS011;63506;49.346;8.798;2023-07-13T12:26:00;5.65;;;0.85;;
74941;SDS011;63506;49.346;8.798;2023-07-13T12:28:32;3.08;;;1.27;;
74941;SDS011;63506;49.346;8.798;2023-07-13T12:33:30;7.10;;;2.47;;
74941;SDS011;63506;49.346;8.798;2023-07-13T12:35:59;3.17;;;1.33;;
74941;SDS011;63506;49.346;8.798;2023-07-13T12:38:29;4.03;;;1.00;;
74941;SDS011;63506;49.346;8.798;2023-07-13T12:40:57;2.53;;;0.98;;
74941;SDS011;63506;49.346;8.798;2023-07-13T12:43:28;3.85;;;1.17;;
74941;SDS011;63506;49.346;8.798;2023-07-13T12:45:59;2.85;;;1.40;;
74941;SDS011;63506;49.346;8.798;2023-07-13T12:48:37;1.70;;;1.40;;
74941;SDS011;63506;49.346;8.798;2023-07-13T12:51:08;1.17;;;0.82;;
74941;SDS011;63506;49.346;8.798;2023-07-13T12:53:38;2.10;;;1.10;;
74941;SDS011;63506;49.346;8.798;2023-07-13T12:56:08;1.90;;;1.10;;
74941;SDS011;63506;49.346;8.798;2023-07-13T12:58:43;1.27;;;0.57;;
74941;SDS011;63506;49.346;8.798;2023-07-13T13:01:17;3.08;;;1.15;;
74941;SDS011;63506;49.346;8.798;2023-07-13T13:03:46;5.05;;;1.40;;
74941;SDS011;63506;49.346;8.798;2023-07-13T13:06:22;14.45;;;2.15;;
74941;SDS011;63506;49.346;8.798;2023-07-13T13:08:54;2.10;;;1.33;;
74941;SDS011;63506;49.346;8.798;2023-07-13T13:11:24;1.70;;;1.08;;
74941;SDS011;63506;49.346;8.798;2023-07-13T13:13:52;1.98;;;1.33;;
74941;SDS011;63506;49.346;8.798;2023-07-13T13:16:23;1.80;;;1.17;;
74941;SDS011;63506;49.346;8.798;2023-07-13T13:18:59;3.53;;;1.10;;
74941;SDS011;63506;49.346;8.798;2023-07-13T13:23:58;1.40;;;1.15;;
74941;SDS011;63506;49.346;8.798;2023-07-13T13:26:28;2.40;;;0.88;;
74941;SDS011;63506;49.346;8.798;2023-07-13T13:28:56;5.35;;;1.20;;
74941;SDS011;63506;49.346;8.798;2023-07-13T13:31:24;1.83;;;1.30;;
74941;SDS011;63506;49.346;8.798;2023-07-13T13:33:52;2.20;;;1.58;;
74941;SDS011;63506;49.346;8.798;2023-07-13T13:36:22;3.67;;;2.08;;
74941;SDS011;63506;49.346;8.798;2023-07-13T13:38:50;1.80;;;0.93;;
74941;SDS011;63506;49.346;8.798;2023-07-13T13:41:17;1.20;;;0.80;;
74941;SDS011;63506;49.346;8.798;2023-07-13T13:43:45;2.15;;;0.80;;
74941;SDS011;63506;49.346;8.798;2023-07-13T13:46:14;1.67;;;1.40;;
74941;SDS011;63506;49.346;8.798;2023-07-13T13:48:43;2.75;;;1.20;;
74941;SDS011;63506;49.346;8.798;2023-07-13T13:51:13;2.47;;;1.00;;
74941;SDS011;63506;49.346;8.798;2023-07-13T13:53:46;1.52;;;0.95;;
74941;SDS011;63506;49.346;8.798;2023-07-13T13:56:18;1.65;;;1.13;;
74941;SDS011;63506;49.346;8.798;2023-07-13T13:58:47;4.72;;;1.15;;
74941;SDS011;63506;49.346;8.798;2023-07-13T14:01:17;2.53;;;0.90;;
74941;SDS011;63506;49.346;8.798;2023-07-13T14:03:48;2.70;;;1.50;;
74941;SDS011;63506;49.346;8.798;2023-07-13T14:06:17;3.88;;;1.17;;
74941;SDS011;63506;49.346;8.798;2023-07-13T14:08:46;1.50;;;1.33;;
74941;SDS011;63506;49.346;8.798;2023-07-13T14:11:16;18.02;;;1.60;;
74941;SDS011;63506;49.346;8.798;2023-07-13T14:13:48;1.48;;;1.10;;
74941;SDS011;63506;49.346;8.798;2023-07-13T14:16:17;5.50;;;0.85;;
74941;SDS011;63506;49.346;8.798;2023-07-13T14:18:46;1.27;;;1.00;;
74941;SDS011;63506;49.346;8.798;2023-07-13T14:21:16;1.60;;;0.88;;
74941;SDS011;63506;49.346;8.798;2023-07-13T14:23:47;2.17;;;1.23;;
74941;SDS011;63506;49.346;8.798;2023-07-13T14:26:17;3.47;;;1.42;;
74941;SDS011;63506;49.346;8.798;2023-07-13T14:28:47;4.43;;;1.10;;
74941;SDS011;63506;49.346;8.798;2023-07-13T14:31:15;6.43;;;1.15;;
74941;SDS011;63506;49.346;8.798;2023-07-13T14:33:46;4.07;;;1.30;;
74941;SDS011;63506;49.346;8.798;2023-07-13T14:36:18;2.47;;;1.02;;
74941;SDS011;63506;49.346;8.798;2023-07-13T14:38:52;3.20;;;1.10;;
74941;SDS011;63506;49.346;8.798;2023-07-13T14:41:22;2.33;;;1.05;;
74941;SDS011;63506;49.346;8.798;2023-07-13T14:43:49;1.92;;;1.17;;
74941;SDS011;63506;49.346;8.798;2023-07-13T14:46:20;5.13;;;1.55;;
74941;SDS011;63506;49.346;8.798;2023-07-13T14:48:52;2.80;;;1.15;;
74941;SDS011;63506;49.346;8.798;2023-07-13T14:51:21;1.55;;;1.15;;
74941;SDS011;63506;49.346;8.798;2023-07-13T14:53:49;4.05;;;1.30;;
74941;SDS011;63506;49.346;8.798;2023-07-13T14:56:18;3.08;;;1.13;;
74941;SDS011;63506;49.346;8.798;2023-07-13T14:58:45;2.97;;;2.03;;
74941;SDS011;63506;49.346;8.798;2023-07-13T15:01:13;3.35;;;1.20;;
74941;SDS011;63506;49.346;8.798;2023-07-13T15:03:46;1.90;;;1.70;;
74941;SDS011;63506;49.346;8.798;2023-07-13T15:08:42;2.78;;;1.27;;
74941;SDS011;63506;49.346;8.798;2023-07-13T15:11:15;3.35;;;0.90;;
74941;SDS011;63506;49.346;8.798;2023-07-13T15:13:45;2.60;;;1.60;;
74941;SDS011;63506;49.346;8.798;2023-07-13T15:16:15;3.33;;;2.50;;
74941;SDS011;63506;49.346;8.798;2023-07-13T15:18:44;2.10;;;1.30;;
74941;SDS011;63506;49.346;8.798;2023-07-13T15:21:13;2.63;;;1.50;;
74941;SDS011;63506;49.346;8.798;2023-07-13T15:23:44;1.55;;;0.98;;
74941;SDS011;63506;49.346;8.798;2023-07-13T15:26:12;1.35;;;1.15;;
74941;SDS011;63506;49.346;8.798;2023-07-13T15:28:40;3.72;;;1.50;;
74941;SDS011;63506;49.346;8.798;2023-07-13T15:31:16;2.42;;;1.02;;